createdAt,value
2019-05-01T00:00:27.403Z,33.53
2019-05-01T00:03:24.876Z,36.93
2019-05-01T00:05:57.379Z,35.43
2019-05-01T00:08:27.143Z,34.87
2019-05-01T00:10:56.522Z,34.87
2019-05-01T00:13:26.167Z,31.97
2019-05-01T00:15:55.837Z,32.37
2019-05-01T00:18:25.554Z,37.60
2019-05-01T00:20:54.932Z,37.97
2019-05-01T00:23:24.335Z,36.30
2019-05-01T00:25:53.755Z,37.63
2019-05-01T00:28:23.352Z,36.33
2019-05-01T00:30:52.725Z,34.83
2019-05-01T00:33:22.138Z,36.00
2019-05-01T00:35:51.531Z,37.20
2019-05-01T00:38:20.919Z,35.20
2019-05-01T00:40:50.371Z,33.53
2019-05-01T00:43:19.787Z,30.70
2019-05-01T00:45:49.120Z,33.00
2019-05-01T00:48:18.513Z,36.00
2019-05-01T00:50:47.908Z,32.83
2019-05-01T00:53:17.423Z,28.57
2019-05-01T00:55:57.095Z,32.80
2019-05-01T00:58:44.423Z,34.67
2019-05-01T01:01:35.882Z,35.27
2019-05-01T01:04:05.436Z,33.17
2019-05-01T01:06:34.937Z,33.70
2019-05-01T01:09:05.604Z,31.90
2019-05-01T01:11:35.105Z,32.93
2019-05-01T01:14:04.819Z,30.17
2019-05-01T01:16:34.242Z,34.43
2019-05-01T01:19:03.630Z,31.00
2019-05-01T01:21:33.060Z,35.47
2019-05-01T01:24:02.650Z,33.00
2019-05-01T01:26:32.267Z,31.00
2019-05-01T01:29:01.683Z,31.57
2019-05-01T01:31:31.151Z,38.47
2019-05-01T01:34:00.583Z,34.77
2019-05-01T01:36:30.026Z,31.57
2019-05-01T01:38:59.427Z,42.37
2019-05-01T01:41:28.953Z,34.03
2019-05-01T01:44:22.271Z,33.40
2019-05-01T01:46:52.731Z,39.33
2019-05-01T01:49:22.167Z,33.00
2019-05-01T01:51:52.007Z,35.87
2019-05-01T01:54:21.683Z,31.53
2019-05-01T01:56:51.479Z,32.10
2019-05-01T01:59:21.720Z,31.17
2019-05-01T02:02:09.422Z,31.40
2019-05-01T02:05:06.615Z,29.63
2019-05-01T02:07:37.317Z,29.47
2019-05-01T02:10:07.530Z,33.53
2019-05-01T02:12:38.702Z,32.40
2019-05-01T02:15:08.464Z,29.60
2019-05-01T02:17:37.852Z,31.30
2019-05-01T02:20:08.391Z,32.63
2019-05-01T02:22:37.896Z,32.37
2019-05-01T02:25:09.010Z,32.70
2019-05-01T02:28:06.992Z,38.53
2019-05-01T02:30:36.608Z,34.90
2019-05-01T02:33:06.084Z,31.47
2019-05-01T02:35:36.604Z,36.90
2019-05-01T02:38:06.611Z,31.17
2019-05-01T02:40:56.315Z,30.13
2019-05-01T02:43:28.528Z,34.60
2019-05-01T02:46:01.253Z,32.37
2019-05-01T02:48:34.548Z,36.70
2019-05-01T02:51:06.440Z,32.83
2019-05-01T02:53:38.544Z,35.67
2019-05-01T02:56:23.361Z,41.10
2019-05-01T02:58:55.287Z,35.33
2019-05-01T03:01:25.169Z,34.80
2019-05-01T03:03:56.135Z,37.90
2019-05-01T03:06:28.236Z,44.00
2019-05-01T03:08:59.213Z,37.27
2019-05-01T03:11:29.791Z,37.37
2019-05-01T03:14:02.376Z,45.73
2019-05-01T03:16:34.673Z,41.53
2019-05-01T03:19:08.192Z,41.40
2019-05-01T03:21:45.583Z,38.33
2019-05-01T03:24:23.581Z,40.23
2019-05-01T03:26:54.041Z,37.07
2019-05-01T03:29:24.130Z,34.97
2019-05-01T03:32:15.870Z,40.27
2019-05-01T03:34:25.310Z,38.77
2019-05-01T03:36:54.900Z,38.57
2019-05-01T03:39:24.300Z,37.47
2019-05-01T03:41:54.172Z,36.23
2019-05-01T03:44:23.755Z,38.23
2019-05-01T03:46:54.133Z,34.90
2019-05-01T03:49:23.615Z,33.20
2019-05-01T03:51:53.001Z,38.37
2019-05-01T03:54:22.615Z,41.73
2019-05-01T03:56:52.058Z,39.60
2019-05-01T03:59:21.861Z,36.40
2019-05-01T04:02:07.971Z,40.77
2019-05-01T04:04:37.375Z,40.83
2019-05-01T04:07:06.995Z,37.73
2019-05-01T04:09:36.745Z,39.87
2019-05-01T04:12:06.871Z,32.47
2019-05-01T04:14:39.090Z,33.97
2019-05-01T04:17:14.283Z,38.07
2019-05-01T04:19:44.073Z,41.00
2019-05-01T04:22:14.542Z,37.90
2019-05-01T04:24:44.357Z,35.90
2019-05-01T04:27:19.804Z,34.33
2019-05-01T04:30:01.816Z,33.40
2019-05-01T04:32:50.109Z,38.47
2019-05-01T04:35:23.818Z,34.40
2019-05-01T04:37:55.210Z,35.77
2019-05-01T04:40:24.625Z,31.20
2019-05-01T04:42:54.142Z,29.00
2019-05-01T04:45:24.444Z,36.83
2019-05-01T04:47:54.055Z,30.33
2019-05-01T04:50:23.640Z,31.27
2019-05-01T04:52:53.212Z,33.23
2019-05-01T04:55:23.725Z,33.83
2019-05-01T04:57:53.499Z,34.93
2019-05-01T05:00:23.072Z,32.43
2019-05-01T05:03:05.008Z,32.90
2019-05-01T05:05:33.000Z,33.30
2019-05-01T05:08:03.445Z,38.00
2019-05-01T05:10:33.196Z,32.23
2019-05-01T05:13:18.886Z,39.97
2019-05-01T05:16:00.619Z,33.47
2019-05-01T05:18:30.330Z,35.03
2019-05-01T05:21:00.415Z,34.10
2019-05-01T05:23:30.065Z,31.40
2019-05-01T05:25:59.727Z,33.87
2019-05-01T05:28:31.423Z,31.60
2019-05-01T05:31:01.982Z,30.60
2019-05-01T05:33:33.879Z,31.63
2019-05-01T05:36:06.361Z,34.90
2019-05-01T05:38:45.612Z,30.77
2019-05-01T05:41:15.912Z,29.97
2019-05-01T05:43:45.496Z,31.23
2019-05-01T05:46:15.443Z,30.63
2019-05-01T05:48:44.829Z,29.40
2019-05-01T05:51:27.287Z,29.43
2019-05-01T05:54:00.070Z,29.70
2019-05-01T05:56:36.651Z,34.07
2019-05-01T05:59:12.103Z,31.40
2019-05-01T06:02:05.263Z,34.33
2019-05-01T06:04:54.626Z,30.77
2019-05-01T06:07:30.418Z,32.57
2019-05-01T06:10:23.134Z,29.13
2019-05-01T06:13:10.577Z,31.53
2019-05-01T06:15:49.764Z,31.07
2019-05-01T06:18:24.283Z,31.80
2019-05-01T06:21:05.824Z,32.97
2019-05-01T06:23:41.773Z,29.60
2019-05-01T06:26:32.167Z,32.77
2019-05-01T06:29:00.690Z,37.93
2019-05-01T06:31:31.987Z,28.80
2019-05-01T06:34:08.230Z,29.93
2019-05-01T06:36:44.319Z,29.93
2019-05-01T06:39:13.290Z,34.37
2019-05-01T06:41:44.652Z,30.47
2019-05-01T06:44:33.448Z,33.20
2019-05-01T06:47:26.908Z,27.73
2019-05-01T06:50:25.155Z,30.53
2019-05-01T06:52:54.553Z,28.00
2019-05-01T06:55:27.141Z,29.27
2019-05-01T06:57:55.418Z,27.00
2019-05-01T07:00:24.827Z,27.70
2019-05-01T07:02:55.201Z,27.70
2019-05-01T07:05:25.066Z,28.70
2019-05-01T07:07:55.849Z,31.03
2019-05-01T07:10:31.797Z,27.90
2019-05-01T07:13:04.984Z,31.63
2019-05-01T07:15:32.547Z,27.83
2019-05-01T07:18:02.659Z,27.93
2019-05-01T07:20:53.214Z,26.50
2019-05-01T07:23:23.167Z,30.77
2019-05-01T07:25:52.592Z,26.43
2019-05-01T07:28:29.061Z,25.00
2019-05-01T07:31:05.787Z,26.87
2019-05-01T07:33:35.964Z,24.43
2019-05-01T07:36:07.061Z,25.80
2019-05-01T07:38:38.730Z,26.47
2019-05-01T07:41:09.054Z,26.40
2019-05-01T07:44:03.898Z,29.33
2019-05-01T07:46:56.191Z,25.20
2019-05-01T07:49:52.660Z,20.73
2019-05-01T07:52:20.799Z,21.70
2019-05-01T07:54:50.836Z,26.93
2019-05-01T07:57:22.917Z,25.40
2019-05-01T07:59:51.899Z,23.40
2019-05-01T08:02:21.322Z,20.67
2019-05-01T08:04:50.730Z,20.47
2019-05-01T08:07:20.181Z,20.10
2019-05-01T08:09:50.356Z,19.57
2019-05-01T08:12:23.951Z,19.97
2019-05-01T08:14:52.512Z,16.97
2019-05-01T08:17:24.596Z,18.13
2019-05-01T08:19:59.140Z,18.30
2019-05-01T08:22:32.044Z,21.63
2019-05-01T08:25:02.420Z,16.67
2019-05-01T08:27:44.035Z,18.17
2019-05-01T08:30:35.450Z,17.00
2019-05-01T08:33:29.566Z,18.60
2019-05-01T08:35:58.974Z,18.43
2019-05-01T08:38:29.812Z,17.93
2019-05-01T08:41:00.179Z,18.50
2019-05-01T08:43:29.888Z,21.93
2019-05-01T08:46:17.753Z,22.70
2019-05-01T08:49:14.952Z,16.97
2019-05-01T08:51:44.425Z,18.47
2019-05-01T08:54:13.875Z,19.23
2019-05-01T08:56:43.758Z,25.10
2019-05-01T08:59:13.299Z,18.00
2019-05-01T09:01:45.850Z,22.70
2019-05-01T09:04:13.870Z,23.00
2019-05-01T09:06:43.922Z,19.90
2019-05-01T09:09:14.455Z,16.57
2019-05-01T09:11:43.894Z,15.57
2019-05-01T09:14:13.288Z,14.07
2019-05-01T09:16:42.704Z,14.80
2019-05-01T09:19:12.123Z,15.27
2019-05-01T09:21:41.533Z,13.67
2019-05-01T09:24:10.927Z,13.13
2019-05-01T09:26:52.904Z,12.90
2019-05-01T09:29:28.979Z,21.17
2019-05-01T09:31:58.544Z,16.73
2019-05-01T09:34:27.931Z,15.07
2019-05-01T09:36:57.338Z,13.40
2019-05-01T09:39:27.683Z,13.17
2019-05-01T09:41:57.091Z,15.40
2019-05-01T09:44:26.536Z,14.37
2019-05-01T09:46:55.951Z,17.83
2019-05-01T09:49:25.366Z,18.13
2019-05-01T09:52:32.061Z,13.90
2019-05-01T09:55:08.291Z,14.27
2019-05-01T09:57:41.292Z,13.30
2019-05-01T10:00:11.035Z,16.13
2019-05-01T10:02:42.264Z,14.13
2019-05-01T10:05:11.777Z,13.13
2019-05-01T10:07:41.187Z,14.50
2019-05-01T10:10:10.695Z,14.43
2019-05-01T10:12:41.852Z,14.43
2019-05-01T10:15:11.290Z,17.17
2019-05-01T10:17:40.721Z,16.53
2019-05-01T10:20:10.114Z,15.63
2019-05-01T10:22:39.544Z,15.13
2019-05-01T10:25:12.378Z,17.77
2019-05-01T10:27:42.847Z,15.03
2019-05-01T10:30:31.756Z,14.37
2019-05-01T10:33:05.713Z,17.90
2019-05-01T10:36:02.875Z,16.63
2019-05-01T10:38:32.291Z,17.67
2019-05-01T10:41:04.177Z,18.83
2019-05-01T10:43:32.739Z,16.57
2019-05-01T10:46:02.184Z,14.28
2019-05-01T10:48:31.567Z,15.00
2019-05-01T10:51:01.359Z,21.07
2019-05-01T10:53:30.767Z,16.42
2019-05-01T10:56:00.290Z,16.67
2019-05-01T10:58:29.747Z,15.03
2019-05-01T11:01:06.103Z,15.17
2019-05-01T11:03:35.667Z,15.40
2019-05-01T11:06:05.116Z,15.07
2019-05-01T11:08:34.920Z,19.60
2019-05-01T11:11:04.501Z,15.30
2019-05-01T11:13:33.887Z,16.63
2019-05-01T11:16:03.374Z,16.52
2019-05-01T11:18:32.766Z,19.87
2019-05-01T11:21:02.216Z,15.53
2019-05-01T11:23:31.679Z,16.77
2019-05-01T11:26:01.203Z,24.13
2019-05-01T11:28:30.779Z,14.63
2019-05-01T11:31:00.339Z,18.13
2019-05-01T11:33:47.428Z,15.20
2019-05-01T11:36:53.667Z,21.03
2019-05-01T11:39:42.154Z,22.75
2019-05-01T11:42:13.541Z,14.97
2019-05-01T11:44:42.970Z,17.83
2019-05-01T11:47:12.352Z,16.13
2019-05-01T11:49:41.844Z,13.90
2019-05-01T11:52:11.245Z,16.10
2019-05-01T11:54:40.704Z,18.33
2019-05-01T11:57:10.183Z,19.27
2019-05-01T11:59:41.132Z,16.70
2019-05-01T12:02:14.466Z,20.05
2019-05-01T12:04:48.774Z,17.77
2019-05-01T12:07:18.413Z,20.63
2019-05-01T12:09:49.226Z,19.05
2019-05-01T12:12:20.291Z,15.70
2019-05-01T12:14:51.003Z,16.52
2019-05-01T12:17:44.177Z,15.70
2019-05-01T12:20:14.342Z,18.17
2019-05-01T12:22:43.859Z,14.70
2019-05-01T12:25:13.616Z,16.03
2019-05-01T12:27:43.030Z,20.17
2019-05-01T12:30:13.423Z,14.33
2019-05-01T12:32:42.835Z,14.35
2019-05-01T12:35:12.364Z,16.30
2019-05-01T12:37:42.689Z,14.87
2019-05-01T12:40:16.840Z,18.07
2019-05-01T12:42:46.414Z,17.57
2019-05-01T12:45:16.481Z,16.35
2019-05-01T12:47:53.698Z,15.65
2019-05-01T12:50:23.540Z,13.32
2019-05-01T12:53:08.245Z,14.93
2019-05-01T12:56:05.748Z,15.10
2019-05-01T12:58:37.425Z,15.70
2019-05-01T13:01:09.139Z,15.83
2019-05-01T13:03:38.555Z,18.67
2019-05-01T13:06:08.024Z,16.83
2019-05-01T13:08:37.441Z,19.20
2019-05-01T13:11:06.933Z,16.52
2019-05-01T13:13:36.280Z,16.55
2019-05-01T13:16:05.781Z,15.77
2019-05-01T13:18:35.345Z,16.02
2019-05-01T13:21:04.788Z,14.87
2019-05-01T13:23:34.187Z,14.78
2019-05-01T13:26:10.547Z,16.55
2019-05-01T13:28:49.751Z,14.50
2019-05-01T13:31:36.577Z,17.98
2019-05-01T13:34:06.367Z,15.70
2019-05-01T13:36:37.841Z,13.20
2019-05-01T13:39:09.380Z,13.55
2019-05-01T13:41:38.766Z,14.53
2019-05-01T13:44:08.221Z,13.98
2019-05-01T13:46:37.626Z,13.60
2019-05-01T13:49:07.003Z,17.25
2019-05-01T13:51:36.523Z,15.98
2019-05-01T13:54:07.480Z,13.65
2019-05-01T13:56:37.107Z,15.13
2019-05-01T13:59:08.578Z,14.53
2019-05-01T14:01:38.012Z,16.82
2019-05-01T14:04:07.837Z,13.10
2019-05-01T14:06:37.235Z,13.18
2019-05-01T14:09:10.436Z,13.95
2019-05-01T14:11:39.860Z,14.83
2019-05-01T14:14:09.320Z,14.10
2019-05-01T14:16:38.718Z,12.20
2019-05-01T14:19:08.275Z,14.50
2019-05-01T14:21:56.700Z,15.75
2019-05-01T14:24:32.397Z,15.15
2019-05-01T14:27:01.811Z,13.32
2019-05-01T14:29:31.224Z,12.60
2019-05-01T14:32:00.760Z,12.33
2019-05-01T14:34:30.121Z,13.83
2019-05-01T14:36:59.562Z,12.63
2019-05-01T14:39:30.289Z,12.47
2019-05-01T14:41:59.740Z,14.15
2019-05-01T14:44:36.464Z,12.50
2019-05-01T14:47:00.335Z,12.98
2019-05-01T14:49:29.691Z,13.15
2019-05-01T14:51:59.210Z,12.05
2019-05-01T14:54:28.665Z,13.83
2019-05-01T14:56:58.087Z,14.90
2019-05-01T14:59:29.896Z,11.63
2019-05-01T15:01:59.300Z,14.77
2019-05-01T15:04:28.740Z,11.85
2019-05-01T15:06:58.127Z,12.05
2019-05-01T15:09:27.745Z,13.45
2019-05-01T15:11:57.151Z,13.62
2019-05-01T15:14:46.241Z,15.30
2019-05-01T15:17:19.507Z,13.20
2019-05-01T15:19:58.295Z,12.90
2019-05-01T15:22:27.623Z,12.05
2019-05-01T15:24:58.417Z,13.20
2019-05-01T15:27:27.994Z,9.75
2019-05-01T15:29:57.542Z,14.53
2019-05-01T15:32:26.940Z,11.55
2019-05-01T15:34:56.339Z,10.55
2019-05-01T15:37:25.747Z,10.23
2019-05-01T15:40:09.531Z,12.55
2019-05-01T15:42:43.742Z,11.57
2019-05-01T15:45:13.561Z,10.93
2019-05-01T15:47:44.124Z,16.02
2019-05-01T15:50:13.684Z,12.95
2019-05-01T15:52:44.502Z,10.88
2019-05-01T15:55:16.915Z,17.00
2019-05-01T15:57:46.403Z,12.95
2019-05-01T16:00:18.124Z,13.85
2019-05-01T16:02:47.582Z,11.05
2019-05-01T16:05:17.149Z,13.40
2019-05-01T16:07:46.583Z,13.00
2019-05-01T16:10:18.821Z,11.48
2019-05-01T16:12:56.613Z,11.05
2019-05-01T16:15:29.128Z,27.77
2019-05-01T16:17:58.633Z,22.15
2019-05-01T16:20:28.045Z,13.43
2019-05-01T16:22:57.550Z,13.03
2019-05-01T16:25:26.919Z,13.05
2019-05-01T16:27:57.413Z,16.25
2019-05-01T16:30:27.576Z,24.90
2019-05-01T16:32:57.036Z,26.42
2019-05-01T16:35:26.442Z,9.38
2019-05-01T16:37:58.018Z,11.57
2019-05-01T16:40:43.908Z,12.78
2019-05-01T16:43:13.958Z,10.03
2019-05-01T16:45:43.369Z,10.15
2019-05-01T16:48:13.163Z,13.30
2019-05-01T16:50:42.575Z,9.50
2019-05-01T16:53:12.328Z,14.95
2019-05-01T16:55:41.717Z,9.50
2019-05-01T16:58:14.529Z,9.53
2019-05-01T17:01:13.053Z,8.63
2019-05-01T17:03:52.199Z,13.30
2019-05-01T17:06:49.349Z,10.85
2019-05-01T17:09:36.522Z,11.97
2019-05-01T17:12:06.687Z,9.28
2019-05-01T17:14:36.355Z,9.18
2019-05-01T17:17:07.624Z,9.08
2019-05-01T17:19:37.055Z,11.22
2019-05-01T17:22:09.298Z,10.40
2019-05-01T17:24:37.571Z,11.38
2019-05-01T17:27:07.016Z,13.90
2019-05-01T17:29:36.432Z,9.38
2019-05-01T17:32:06.727Z,10.10
2019-05-01T17:34:36.286Z,21.42
2019-05-01T17:37:05.815Z,40.75
2019-05-01T17:39:35.590Z,12.30
2019-05-01T17:42:05.433Z,10.78
2019-05-01T17:44:34.961Z,10.03
2019-05-01T17:47:05.089Z,37.13
2019-05-01T17:49:34.651Z,19.07
2019-05-01T17:52:04.184Z,13.35
2019-05-01T17:54:33.718Z,11.25
2019-05-01T17:57:03.267Z,19.25
2019-05-01T17:59:32.860Z,14.13
2019-05-01T18:02:22.720Z,14.83
2019-05-01T18:05:08.560Z,20.50
2019-05-01T18:07:40.477Z,14.45
2019-05-01T18:10:09.981Z,10.05
2019-05-01T18:12:39.778Z,15.03
2019-05-01T18:15:09.779Z,13.13
2019-05-01T18:17:39.197Z,13.98
2019-05-01T18:20:09.116Z,14.73
2019-05-01T18:23:00.568Z,11.15
2019-05-01T18:25:57.726Z,14.80
2019-05-01T18:28:34.136Z,13.78
2019-05-01T18:31:04.153Z,22.02
2019-05-01T18:33:33.587Z,15.05
2019-05-01T18:36:03.633Z,40.50
2019-05-01T18:38:55.304Z,48.52
2019-05-01T18:41:29.868Z,20.25
2019-05-01T18:43:59.284Z,38.25
2019-05-01T18:46:28.703Z,49.33
2019-05-01T18:48:58.520Z,18.60
2019-05-01T18:51:27.916Z,14.10
2019-05-01T18:53:58.026Z,22.37
2019-05-01T18:56:28.813Z,9.73
2019-05-01T18:58:58.479Z,14.57
2019-05-01T19:01:27.956Z,15.35
2019-05-01T19:03:57.475Z,11.65
2019-05-01T19:06:40.125Z,13.25
2019-05-01T19:08:58.270Z,17.10
2019-05-01T19:11:27.900Z,14.75
2019-05-01T19:13:58.718Z,12.65
2019-05-01T19:16:28.318Z,15.25
2019-05-01T19:18:57.843Z,13.53
2019-05-01T19:21:29.266Z,18.32
2019-05-01T19:24:00.649Z,15.27
2019-05-01T19:26:30.029Z,15.85
2019-05-01T19:28:59.461Z,12.25
2019-05-01T19:31:28.904Z,17.77
2019-05-01T19:33:58.383Z,13.93
2019-05-01T19:36:27.841Z,16.57
2019-05-01T19:38:57.316Z,13.87
2019-05-01T19:41:26.857Z,16.73
2019-05-01T19:43:56.291Z,17.15
2019-05-01T19:46:25.696Z,13.68
2019-05-01T19:48:55.164Z,14.07
2019-05-01T19:51:26.061Z,16.27
2019-05-01T19:53:55.610Z,16.20
2019-05-01T19:56:25.133Z,17.57
2019-05-01T19:58:57.279Z,16.23
2019-05-01T20:01:26.733Z,17.25
2019-05-01T20:03:56.068Z,18.37
2019-05-01T20:06:25.492Z,18.30
2019-05-01T20:08:54.922Z,13.60
2019-05-01T20:11:24.384Z,15.30
2019-05-01T20:13:53.815Z,17.87
2019-05-01T20:16:23.384Z,17.45
2019-05-01T20:18:52.795Z,14.07
2019-05-01T20:21:22.176Z,17.57
2019-05-01T20:23:51.615Z,17.73
2019-05-01T20:26:21.073Z,16.03
2019-05-01T20:28:50.541Z,17.13
2019-05-01T20:31:20.871Z,17.62
2019-05-01T20:33:51.088Z,14.87
2019-05-01T20:36:20.487Z,18.13
2019-05-01T20:38:49.918Z,15.67
2019-05-01T20:41:19.320Z,17.27
2019-05-01T20:43:48.728Z,18.50
2019-05-01T20:46:21.479Z,17.73
2019-05-01T20:48:49.182Z,15.73
2019-05-01T20:51:20.273Z,14.33
2019-05-01T20:53:49.813Z,24.45
2019-05-01T20:56:39.232Z,17.12
2019-05-01T20:59:08.611Z,17.07
2019-05-01T21:01:38.125Z,17.73
2019-05-01T21:04:32.428Z,17.63
2019-05-01T21:07:29.318Z,16.23
2019-05-01T21:09:59.185Z,16.20
2019-05-01T21:12:28.641Z,15.90
2019-05-01T21:14:58.025Z,15.53
2019-05-01T21:17:27.413Z,16.67
2019-05-01T21:19:56.815Z,16.73
2019-05-01T21:22:26.226Z,19.67
2019-05-01T21:24:55.627Z,14.93
2019-05-01T21:27:25.020Z,17.13
2019-05-01T21:29:54.443Z,15.00
2019-05-01T21:32:27.485Z,18.87
2019-05-01T21:34:54.941Z,16.20
2019-05-01T21:37:24.336Z,16.77
2019-05-01T21:39:53.877Z,16.30
2019-05-01T21:42:24.512Z,14.47
2019-05-01T21:44:54.173Z,19.27
2019-05-01T21:47:23.830Z,15.33
2019-05-01T21:49:53.450Z,16.60
2019-05-01T21:52:26.445Z,15.17
2019-05-01T21:54:55.506Z,16.33
2019-05-01T21:57:29.615Z,18.03
2019-05-01T21:59:57.454Z,19.80
2019-05-01T22:02:27.112Z,19.37
2019-05-01T22:04:56.712Z,18.60
2019-05-01T22:07:27.803Z,16.53
2019-05-01T22:09:57.207Z,16.70
2019-05-01T22:12:26.619Z,17.83
2019-05-01T22:15:11.108Z,18.27
2019-05-01T22:17:49.175Z,20.50
2019-05-01T22:20:22.639Z,21.90
2019-05-01T22:22:56.712Z,16.40
2019-05-01T22:25:45.048Z,16.33
2019-05-01T22:28:28.955Z,20.47
2019-05-01T22:31:23.428Z,17.13
2019-05-01T22:33:56.867Z,16.00
2019-05-01T22:36:26.272Z,15.13
2019-05-01T22:38:55.707Z,14.50
2019-05-01T22:41:25.143Z,17.83
2019-05-01T22:43:55.666Z,14.27
2019-05-01T22:46:28.666Z,17.40
2019-05-01T22:48:58.066Z,19.07
2019-05-01T22:51:27.499Z,19.30
2019-05-01T22:53:56.910Z,17.50
2019-05-01T22:56:26.412Z,17.00
2019-05-01T22:58:55.801Z,13.80
2019-05-01T23:01:26.230Z,16.27
2019-05-01T23:03:57.897Z,17.53
2019-05-01T23:06:27.296Z,15.77
2019-05-01T23:08:56.771Z,22.33
2019-05-01T23:11:27.746Z,18.03
2019-05-01T23:13:57.177Z,15.60
2019-05-01T23:16:30.122Z,20.30
2019-05-01T23:18:59.512Z,15.87
2019-05-01T23:21:28.918Z,17.57
2019-05-01T23:24:01.880Z,14.17
2019-05-01T23:26:29.443Z,19.90
2019-05-01T23:28:58.847Z,15.37
2019-05-01T23:31:28.516Z,19.03
2019-05-01T23:33:57.952Z,17.93
2019-05-01T23:36:29.257Z,16.13
2019-05-01T23:38:58.778Z,16.63
2019-05-01T23:41:44.801Z,18.60
2019-05-01T23:44:03.436Z,20.53
2019-05-01T23:46:30.319Z,19.10
2019-05-01T23:48:59.708Z,18.77
2019-05-01T23:51:29.918Z,21.53
2019-05-01T23:53:59.351Z,14.67
2019-05-01T23:56:31.183Z,15.57
2019-05-01T23:58:59.859Z,16.10
